Aérodrome :
LOGIN :

S'inscrire | Disclaimer

   EN    FR    IT 

 










Légende :    VFR   VFR Marginal   IFR   IFR Intensif   IFR Très Intensif
Visi : 
Plafond : 
>= 8 km
>= 3000ft
5 à 8 km
1000 à 3000 ft
1500m à 5 km
500 à 1000 ft
800 à 1500m
200 à 500 ft
< 800m
< 200 ft
Symboles :   Orages  Brouillard  Fortes neiges  Fortes précipitations  Vent > 20 kt
SIGMETs :   Divers  Orages  Givrage  Turbulence  Onde Orograph.  Cendres Volcan.







- Altitude de l'aérodrome : 17 ft
- Code IATA : GRQ


EHGG - Groningen Eelde

DERNIER METAR :
  • 251155Z AUTO 32011KT 290V350 9999 BKN021 OVC024 16/12 Q1024 NOSIG

METARs EXPIRÉS :
  • 251125Z AUTO 32012KT 280V350 9999 BKN024 17/12 Q1024 NOSIG
  • 251055Z AUTO 33011KT 290V360 9999 SCT020 OVC023 16/12 Q1024 NOSIG
  • 251025Z AUTO 31011KT 280V350 9999 BKN021 OVC024 16/11 Q1024 NOSIG
  • 250955Z AUTO 33012KT 290V360 9999 SCT021 OVC025 16/11 Q1024 NOSIG
  • 250925Z AUTO 32012KT 280V360 9999 SCT019 BKN024 BKN028 16/11 Q1024 NOSIG

TAF TAF EHGG
Valide du 25 à 12h jusqu'au 26 à 18h UTC


251054Z 2512/2618 33013KT 9999 BKN020
BECMG 2519/2522 33003KT
PROB30 2601/2606 3500 BR MIFG
BECMG 2606/2609 36010KT
Pas de NOTAMs connus pour ce terrain.



MET'MAP, la Météo Aéronautique d'un coup d'oeil ! - Copyright ORBIFLY Décembre 2007 - Disclaimer

ORBIFLY MET'MAP TEAM :

Programmation & Développement : Alexandra Zaïnal
Conception & Développement : Baudouin d'Aumeries
Co-Programmation & Développement : Marc-Olivier Méhu
Soutien technique & logistique : Manuel Goepfert

Contact : metmap@orbifly.com




SOURCES & CREDITS :

   NOAA